Time;durP1;ratioP1;P1;durP2;ratioP2;P2;SDS_P1;SDS_P2;PMS_P1;PMS_P2;Temp;Humidity;BMP_temperature;BMP_pressure;BME280_temperature;BME280_humidity;BME280_pressure;Samples;Min_cycle;Max_cycle;Signal;HPM_P1;HPM_P2
2021/05/07 00:02:12;;;;;;;5.60;3.20;;;5.10;99.90;;;;;;5079128;28;20060;-79
2021/05/07 00:04:38;;;;;;;4.78;3.17;;;5.10;99.90;;;;;;5074829;28;20060;-79
2021/05/07 00:07:05;;;;;;;5.70;3.58;;;5.00;99.90;;;;;;5078486;28;20048;-79
2021/05/07 00:09:31;;;;;;;6.13;4.38;;;4.90;99.90;;;;;;5077077;28;20058;-79
2021/05/07 00:11:58;;;;;;;4.97;3.78;;;4.90;99.90;;;;;;5076329;28;20056;-78
2021/05/07 00:14:24;;;;;;;6.88;3.67;;;4.80;99.90;;;;;;5079272;28;20723;-79
2021/05/07 00:16:53;;;;;;;5.80;3.47;;;4.80;99.90;;;;;;5079745;28;20048;-79
2021/05/07 00:19:20;;;;;;;7.05;3.42;;;4.70;99.90;;;;;;5079815;28;20052;-79
2021/05/07 00:21:47;;;;;;;9.35;4.10;;;4.70;99.90;;;;;;5076730;28;20044;-79
2021/05/07 00:24:13;;;;;;;6.88;3.80;;;4.60;99.90;;;;;;5077938;28;20063;-79
2021/05/07 00:26:40;;;;;;;5.75;3.53;;;4.60;99.90;;;;;;5079917;28;20086;-79
2021/05/07 00:29:06;;;;;;;5.72;3.63;;;4.60;99.90;;;;;;5078242;28;20051;-79
2021/05/07 00:31:33;;;;;;;4.40;3.25;;;4.60;99.90;;;;;;5078729;28;20105;-78
2021/05/07 00:33:59;;;;;;;4.95;3.67;;;4.50;99.90;;;;;;5056161;28;20063;-79
2021/05/07 00:36:25;;;;;;;5.30;3.45;;;4.50;99.90;;;;;;5072629;28;20505;-78
2021/05/07 00:38:51;;;;;;;6.28;3.90;;;4.40;99.90;;;;;;5077171;28;20045;-79
2021/05/07 00:41:18;;;;;;;5.88;4.18;;;4.30;99.90;;;;;;5074658;28;20048;-79
2021/05/07 00:43:44;;;;;;;8.32;3.60;;;4.30;99.90;;;;;;5078916;28;20063;-79
2021/05/07 00:46:10;;;;;;;6.82;4.07;;;4.20;99.90;;;;;;5077865;28;20052;-78
2021/05/07 00:48:37;;;;;;;9.13;3.92;;;4.20;99.90;;;;;;5076004;28;20144;-79
2021/05/07 00:51:04;;;;;;;8.23;4.25;;;4.20;99.90;;;;;;5075695;28;20048;-79
2021/05/07 00:53:30;;;;;;;7.95;4.75;;;4.10;99.90;;;;;;5075815;28;20104;-79
2021/05/07 00:55:57;;;;;;;6.53;4.22;;;4.10;99.90;;;;;;5085333;28;20128;-79
2021/05/07 00:58:23;;;;;;;6.55;4.18;;;4.00;99.90;;;;;;5079199;28;20403;-79
2021/05/07 01:00:52;;;;;;;5.82;4.22;;;4.00;99.90;;;;;;5077198;28;21455;-79
2021/05/07 01:03:18;;;;;;;5.45;4.10;;;4.00;99.90;;;;;;5075781;28;20135;-79
2021/05/07 01:05:45;;;;;;;11.93;5.18;;;3.90;99.90;;;;;;5077979;28;20054;-79
2021/05/07 01:08:12;;;;;;;8.13;4.75;;;3.90;99.90;;;;;;5093129;27;20131;-79
2021/05/07 01:10:38;;;;;;;7.32;5.18;;;3.90;99.90;;;;;;5076647;28;20468;-79
2021/05/07 01:13:04;;;;;;;6.40;4.55;;;3.80;99.90;;;;;;5078043;28;20052;-79
2021/05/07 01:15:40;;;;;;;8.48;4.80;;;3.80;99.90;;;;;;5058227;28;20631;-79
2021/05/07 01:18:07;;;;;;;7.25;4.20;;;3.80;99.90;;;;;;5076807;28;20089;-79
2021/05/07 01:20:34;;;;;;;7.03;4.63;;;3.80;99.90;;;;;;5077000;28;20055;-78
2021/05/07 01:23:10;;;;;;;8.23;5.18;;;3.80;99.90;;;;;;5058519;28;20112;-78
2021/05/07 01:25:42;;;;;;;6.35;4.65;;;3.80;99.90;;;;;;5071929;28;20091;-78
2021/05/07 01:28:12;;;;;;;6.68;4.50;;;3.90;99.90;;;;;;5076148;28;20564;-78
2021/05/07 01:30:44;;;;;;;7.50;4.20;;;3.90;99.90;;;;;;5075554;28;20059;-79
2021/05/07 01:33:13;;;;;;;7.15;4.53;;;3.90;99.90;;;;;;5073224;28;20054;-80
2021/05/07 01:35:40;;;;;;;6.97;4.22;;;3.90;99.90;;;;;;5073760;28;20551;-79
2021/05/07 01:38:09;;;;;;;6.18;3.85;;;4.00;99.90;;;;;;5090419;28;20055;-79
2021/05/07 01:40:41;;;;;;;6.75;4.07;;;4.00;99.90;;;;;;5074040;28;20384;-78
2021/05/07 01:43:08;;;;;;;11.02;4.55;;;4.10;99.90;;;;;;5074582;28;20048;-79
2021/05/07 01:45:37;;;;;;;6.72;4.20;;;4.00;99.90;;;;;;5075160;28;20135;-79
2021/05/07 01:48:04;;;;;;;6.70;4.15;;;4.10;99.90;;;;;;5077965;28;20066;-79
2021/05/07 01:50:32;;;;;;;9.50;4.00;;;4.10;99.90;;;;;;5094473;28;20074;-79
2021/05/07 01:52:59;;;;;;;5.88;3.70;;;4.10;99.90;;;;;;5090743;27;20072;-78
2021/05/07 01:55:34;;;;;;;8.52;3.65;;;4.10;99.90;;;;;;5083090;28;20519;-79
2021/05/07 01:58:02;;;;;;;6.18;3.30;;;4.10;99.90;;;;;;5066305;28;20049;-79
2021/05/07 02:00:29;;;;;;;7.35;3.42;;;4.10;99.90;;;;;;5076110;28;20647;-78
2021/05/07 02:02:58;;;;;;;4.80;3.53;;;4.10;99.90;;;;;;5076573;28;20050;-79
2021/05/07 02:05:27;;;;;;;5.45;4.10;;;4.20;99.90;;;;;;5076755;28;20056;-78
2021/05/07 02:07:54;;;;;;;5.10;3.72;;;4.20;99.90;;;;;;5067026;28;20135;-79
2021/05/07 02:10:23;;;;;;;7.20;3.85;;;4.20;99.90;;;;;;5087340;28;20044;-79
2021/05/07 02:12:51;;;;;;;6.85;3.63;;;4.30;99.90;;;;;;5079145;28;20136;-79
2021/05/07 02:15:19;;;;;;;6.07;4.07;;;4.30;99.90;;;;;;5090873;28;20054;-79
2021/05/07 02:17:45;;;;;;;7.05;3.28;;;4.50;99.90;;;;;;5077682;28;20230;-79
2021/05/07 02:20:13;;;;;;;6.32;3.13;;;4.50;99.90;;;;;;5075462;28;20048;-80
2021/05/07 02:22:41;;;;;;;9.40;3.15;;;4.60;99.90;;;;;;5074300;28;20050;-79
2021/05/07 02:25:09;;;;;;;2.97;2.60;;;4.70;99.90;;;;;;5077815;28;20404;-78
2021/05/07 02:27:35;;;;;;;5.97;3.20;;;4.80;99.90;;;;;;5074732;28;20138;-79
2021/05/07 02:30:03;;;;;;;5.47;3.03;;;4.80;99.90;;;;;;5071825;28;20052;-78
2021/05/07 02:32:29;;;;;;;3.80;3.13;;;4.90;99.90;;;;;;5075377;28;20047;-79
2021/05/07 02:34:55;;;;;;;5.28;3.38;;;4.90;99.90;;;;;;5075772;28;20044;-79
2021/05/07 02:37:22;;;;;;;3.28;2.90;;;5.00;99.90;;;;;;5075086;28;20044;-79
2021/05/07 02:39:48;;;;;;;4.13;3.30;;;5.00;99.90;;;;;;5072235;28;20067;-79
2021/05/07 02:42:14;;;;;;;4.13;3.10;;;5.10;99.90;;;;;;5075965;28;20138;-79
2021/05/07 02:44:41;;;;;;;4.18;2.97;;;5.10;99.90;;;;;;5062010;28;20048;-79
2021/05/07 02:47:08;;;;;;;6.85;3.28;;;5.10;99.90;;;;;;5057006;28;20052;-80
2021/05/07 02:49:35;;;;;;;3.33;2.70;;;5.10;99.90;;;;;;5069941;28;20063;-79
2021/05/07 02:52:03;;;;;;;4.53;3.38;;;5.10;99.90;;;;;;5075510;28;20055;-79
2021/05/07 02:54:30;;;;;;;4.18;2.92;;;5.10;99.90;;;;;;5073915;28;20075;-79
2021/05/07 02:56:57;;;;;;;6.13;3.33;;;5.10;99.90;;;;;;5073179;28;20051;-79
2021/05/07 02:59:23;;;;;;;4.35;3.20;;;5.10;99.90;;;;;;5074042;28;20052;-78
2021/05/07 03:01:50;;;;;;;4.00;2.97;;;5.10;99.90;;;;;;5073743;28;20120;-79
2021/05/07 03:04:20;;;;;;;5.05;2.55;;;5.00;99.90;;;;;;5074362;28;20059;-78
2021/05/07 03:06:47;;;;;;;5.20;2.80;;;5.00;99.90;;;;;;5073589;28;20592;-79
2021/05/07 03:09:14;;;;;;;3.85;3.38;;;5.00;99.90;;;;;;5073359;28;20050;-79
2021/05/07 03:11:40;;;;;;;6.50;3.33;;;4.90;99.90;;;;;;5075955;28;20379;-79
2021/05/07 03:14:07;;;;;;;6.43;3.30;;;4.80;99.90;;;;;;5071532;28;20048;-79
2021/05/07 03:16:34;;;;;;;9.55;3.58;;;4.80;99.90;;;;;;5078224;28;20478;-79
2021/05/07 03:19:01;;;;;;;5.38;3.58;;;4.70;99.90;;;;;;5090454;28;20109;-79
2021/05/07 03:21:28;;;;;;;5.10;3.13;;;4.70;99.90;;;;;;5093364;28;20044;-79
2021/05/07 03:23:54;;;;;;;4.72;3.47;;;4.60;99.90;;;;;;5077863;28;20055;-79
2021/05/07 03:26:20;;;;;;;4.60;3.55;;;4.60;99.90;;;;;;5075728;28;20044;-79
2021/05/07 03:28:49;;;;;;;5.60;3.40;;;4.50;99.90;;;;;;5076963;28;20667;-79
2021/05/07 03:31:15;;;;;;;5.55;3.60;;;4.50;99.90;;;;;;5083255;28;20150;-79
2021/05/07 03:33:44;;;;;;;6.13;3.75;;;4.50;99.90;;;;;;5079960;28;20103;-79
2021/05/07 03:36:11;;;;;;;4.18;3.28;;;4.40;99.90;;;;;;5076315;28;20101;-79
2021/05/07 03:38:37;;;;;;;6.30;4.05;;;4.40;99.90;;;;;;5076131;28;22669;-79
2021/05/07 03:41:03;;;;;;;6.65;4.05;;;4.40;99.90;;;;;;5079619;28;20103;-79
2021/05/07 03:43:29;;;;;;;6.40;3.92;;;4.40;99.90;;;;;;5082627;28;20054;-79
2021/05/07 03:45:56;;;;;;;5.25;3.65;;;4.30;99.90;;;;;;5052438;28;20174;-78
2021/05/07 03:48:23;;;;;;;9.45;4.60;;;4.30;99.90;;;;;;5065675;28;20134;-79
2021/05/07 03:50:54;;;;;;;6.45;3.80;;;4.20;99.90;;;;;;5076905;28;20127;-80
2021/05/07 03:53:22;;;;;;;11.02;4.22;;;4.10;99.90;;;;;;5043090;28;20563;-79
2021/05/07 03:55:49;;;;;;;8.98;4.07;;;4.10;99.90;;;;;;5059229;28;20044;-79
2021/05/07 03:58:16;;;;;;;8.10;3.72;;;4.00;99.90;;;;;;5054184;28;20045;-79
2021/05/07 04:00:43;;;;;;;6.43;4.47;;;4.00;99.90;;;;;;5038939;28;20057;-79
2021/05/07 04:03:10;;;;;;;6.90;4.55;;;4.00;99.90;;;;;;5045844;28;20091;-79
2021/05/07 04:05:36;;;;;;;6.75;3.83;;;4.00;99.90;;;;;;5062867;28;20105;-79
2021/05/07 04:08:18;;;;;;;9.02;4.72;;;4.00;99.90;;;;;;5077401;28;20125;-79
2021/05/07 04:10:47;;;;;;;6.72;4.30;;;4.00;99.90;;;;;;5078493;28;20472;-79
2021/05/07 04:15:59;;;;;;;5.18;4.05;;;4.00;99.90;;;;;;5077806;28;20044;-79
2021/05/07 04:18:25;;;;;;;6.45;4.80;;;4.00;99.90;;;;;;5078532;28;20143;-79
2021/05/07 04:20:52;;;;;;;5.30;4.63;;;4.00;99.90;;;;;;5077284;28;20044;-79
2021/05/07 04:23:18;;;;;;;7.40;4.50;;;4.00;99.90;;;;;;5076226;28;21109;-80
2021/05/07 04:25:45;;;;;;;8.07;4.93;;;4.00;99.90;;;;;;5077591;28;20044;-79
2021/05/07 04:28:12;;;;;;;7.30;4.63;;;4.00;99.90;;;;;;5079198;28;20529;-79
2021/05/07 04:30:38;;;;;;;8.77;5.13;;;4.00;99.90;;;;;;5080295;28;20131;-79
2021/05/07 04:33:05;;;;;;;7.40;4.80;;;4.00;99.90;;;;;;5076194;28;20112;-79
2021/05/07 04:35:31;;;;;;;8.63;4.90;;;4.00;99.90;;;;;;5079345;28;20135;-79
2021/05/07 04:38:03;;;;;;;9.25;5.63;;;4.10;99.90;;;;;;5075145;28;20052;-79
2021/05/07 04:40:30;;;;;;;13.10;5.10;;;4.10;99.90;;;;;;5077002;28;20060;-79
2021/05/07 04:43:01;;;;;;;9.35;4.50;;;4.20;99.90;;;;;;5078948;28;20048;-79
2021/05/07 04:45:31;;;;;;;6.88;4.53;;;4.30;99.90;;;;;;5080140;28;20036;-78
2021/05/07 04:47:59;;;;;;;5.55;4.53;;;4.40;99.90;;;;;;5076378;28;20052;-79
2021/05/07 04:50:25;;;;;;;9.35;5.35;;;4.50;99.90;;;;;;5077326;28;20044;-78
2021/05/07 04:52:51;;;;;;;6.95;4.40;;;4.70;99.90;;;;;;5076516;28;20052;-79
2021/05/07 04:55:18;;;;;;;5.50;4.18;;;4.90;99.90;;;;;;5076741;28;20052;-78
2021/05/07 04:57:44;;;;;;;5.47;4.20;;;5.20;99.90;;;;;;5092330;27;20053;-79
2021/05/07 05:00:11;;;;;;;6.50;4.38;;;5.50;99.90;;;;;;5072614;28;20487;-78
2021/05/07 05:02:40;;;;;;;4.07;3.65;;;5.90;99.90;;;;;;5072592;28;20052;-78
2021/05/07 05:05:07;;;;;;;4.47;3.63;;;6.20;99.90;;;;;;5075119;28;20055;-79
2021/05/07 05:07:34;;;;;;;3.67;3.30;;;6.40;99.90;;;;;;5072422;28;20103;-78
2021/05/07 05:10:02;;;;;;;5.85;3.63;;;6.60;99.90;;;;;;5082140;28;20394;-79
2021/05/07 05:12:29;;;;;;;7.10;3.75;;;6.60;99.90;;;;;;5077472;28;20076;-79
2021/05/07 05:14:55;;;;;;;9.20;3.60;;;6.70;99.90;;;;;;5077004;28;20059;-79
2021/05/07 05:17:21;;;;;;;4.90;3.40;;;6.70;99.90;;;;;;5072967;28;20187;-78
2021/05/07 05:19:48;;;;;;;5.57;3.40;;;6.70;99.90;;;;;;5079092;28;20142;-79
2021/05/07 05:22:15;;;;;;;4.82;3.53;;;6.70;99.90;;;;;;5072320;28;20048;-79
2021/05/07 05:24:43;;;;;;;6.80;3.33;;;6.60;99.90;;;;;;5072382;28;20047;-79
2021/05/07 05:27:10;;;;;;;4.93;3.10;;;6.40;99.90;;;;;;5075089;28;20048;-79
2021/05/07 05:29:36;;;;;;;10.55;3.17;;;6.20;99.90;;;;;;5072481;28;20571;-79
2021/05/07 05:32:03;;;;;;;8.57;3.13;;;6.10;99.90;;;;;;5087802;28;20100;-79
2021/05/07 05:34:30;;;;;;;4.53;2.92;;;5.90;99.90;;;;;;5064127;28;20054;-78
2021/05/07 05:37:01;;;;;;;4.10;2.83;;;5.80;99.90;;;;;;5064859;28;20106;-79
2021/05/07 05:39:27;;;;;;;5.60;3.08;;;5.60;99.90;;;;;;5072103;28;20071;-79
2021/05/07 05:41:54;;;;;;;6.97;3.67;;;5.50;99.90;;;;;;5082744;28;20059;-78
2021/05/07 05:44:20;;;;;;;8.40;3.40;;;5.30;99.90;;;;;;5076845;28;20051;-79
2021/05/07 05:46:46;;;;;;;5.05;3.47;;;5.30;99.90;;;;;;5072943;28;20048;-79
2021/05/07 05:49:16;;;;;;;5.85;3.15;;;5.20;99.90;;;;;;5070819;28;20052;-79
2021/05/07 05:51:43;;;;;;;6.53;3.30;;;5.20;99.90;;;;;;5073708;28;20048;-79
2021/05/07 05:54:10;;;;;;;3.33;2.60;;;5.40;99.90;;;;;;5072484;28;20062;-79
2021/05/07 05:56:37;;;;;;;5.70;2.63;;;5.60;99.90;;;;;;5074075;28;20162;-79
2021/05/07 05:59:03;;;;;;;4.55;3.25;;;5.60;99.90;;;;;;5073265;28;20056;-79
2021/05/07 06:01:30;;;;;;;3.42;2.92;;;5.60;99.90;;;;;;5075311;28;20048;-79
2021/05/07 06:03:56;;;;;;;6.82;3.50;;;5.50;99.90;;;;;;5077092;28;20052;-79
2021/05/07 06:06:22;;;;;;;5.57;3.15;;;5.50;99.90;;;;;;5074584;28;20102;-79
2021/05/07 06:08:48;;;;;;;5.97;3.20;;;5.50;99.90;;;;;;5075641;28;20139;-79
2021/05/07 06:11:15;;;;;;;4.85;3.70;;;5.60;99.90;;;;;;5075890;28;20112;-79
2021/05/07 06:13:41;;;;;;;7.53;3.50;;;5.80;99.90;;;;;;5079073;28;20056;-79
2021/05/07 06:16:07;;;;;;;5.63;4.00;;;5.90;99.90;;;;;;5076557;28;20570;-78
2021/05/07 06:18:33;;;;;;;6.45;3.63;;;6.10;99.90;;;;;;5072541;28;20072;-79
2021/05/07 06:21:00;;;;;;;4.72;3.25;;;6.40;99.90;;;;;;5073434;28;20048;-79
2021/05/07 06:23:27;;;;;;;5.30;3.15;;;6.70;99.90;;;;;;5072127;28;20115;-79
2021/05/07 06:25:53;;;;;;;6.28;2.90;;;7.10;99.90;;;;;;5076352;28;20113;-79
2021/05/07 06:28:19;;;;;;;2.50;2.30;;;7.50;99.90;;;;;;5074262;28;20052;-78
2021/05/07 06:30:46;;;;;;;13.00;3.97;;;7.70;99.90;;;;;;5055614;28;20052;-79
2021/05/07 06:33:12;;;;;;;3.50;2.22;;;8.00;99.90;;;;;;5053593;28;20048;-79
2021/05/07 06:35:40;;;;;;;5.18;2.30;;;8.20;99.90;;;;;;5048940;28;20068;-79
2021/05/07 06:38:10;;;;;;;4.10;2.42;;;8.40;99.90;;;;;;5031573;28;20471;-81
2021/05/07 06:40:36;;;;;;;5.20;2.25;;;8.60;99.90;;;;;;5039464;28;20462;-81
2021/05/07 06:43:04;;;;;;;2.95;2.22;;;8.70;99.90;;;;;;5045981;28;20052;-81
2021/05/07 06:45:31;;;;;;;3.58;2.53;;;8.70;99.90;;;;;;5049788;28;20488;-82
2021/05/07 06:47:58;;;;;;;8.50;2.70;;;8.70;99.90;;;;;;5080705;28;20067;-79
2021/05/07 06:50:28;;;;;;;3.25;2.42;;;8.80;99.90;;;;;;5072876;28;20132;-79
2021/05/07 06:52:56;;;;;;;6.90;2.35;;;8.80;99.90;;;;;;5080690;28;20597;-79
2021/05/07 06:55:22;;;;;;;4.68;2.33;;;9.00;99.90;;;;;;5068014;28;20071;-79
2021/05/07 06:57:50;;;;;;;2.70;2.15;;;9.10;99.90;;;;;;5069832;28;20047;-79
2021/05/07 07:00:17;;;;;;;3.00;2.55;;;9.20;99.90;;;;;;5068630;28;20131;-79
2021/05/07 07:02:44;;;;;;;4.30;2.22;;;9.30;99.90;;;;;;5084684;28;20051;-79
2021/05/07 07:05:11;;;;;;;3.90;2.38;;;9.40;99.90;;;;;;5092856;27;20111;-79
2021/05/07 07:07:37;;;;;;;6.97;2.40;;;9.40;99.90;;;;;;5080133;28;20056;-79
2021/05/07 07:10:20;;;;;;;3.78;2.60;;;9.40;99.90;;;;;;5068418;28;20059;-79
2021/05/07 07:12:47;;;;;;;8.13;2.67;;;9.50;99.90;;;;;;5063955;28;20101;-80
2021/05/07 07:15:14;;;;;;;5.40;2.33;;;9.60;99.90;;;;;;5098384;27;20048;-80
2021/05/07 07:17:40;;;;;;;6.07;2.58;;;9.60;99.90;;;;;;5073114;28;20083;-81
2021/05/07 07:20:08;;;;;;;4.93;3.33;;;9.70;99.90;;;;;;5082969;28;20145;-81
2021/05/07 07:22:35;;;;;;;6.22;2.60;;;9.90;99.90;;;;;;5071636;28;20059;-81
2021/05/07 07:25:03;;;;;;;5.43;2.10;;;10.10;99.90;;;;;;5071634;28;20048;-80
2021/05/07 07:27:29;;;;;;;4.53;2.88;;;10.30;99.90;;;;;;5078651;28;20152;-80
2021/05/07 07:29:55;;;;;;;4.68;2.20;;;10.30;99.90;;;;;;5078954;28;20055;-80
2021/05/07 07:32:22;;;;;;;4.50;2.60;;;10.40;99.90;;;;;;5080898;28;20052;-80
2021/05/07 07:34:49;;;;;;;5.38;2.67;;;10.60;99.90;;;;;;5082507;28;20076;-80
2021/05/07 07:37:15;;;;;;;6.55;2.53;;;10.80;99.90;;;;;;5053765;28;20048;-80
2021/05/07 07:39:42;;;;;;;4.07;1.58;;;10.90;99.90;;;;;;5075480;28;20446;-81
2021/05/07 07:42:09;;;;;;;3.15;2.47;;;10.90;99.90;;;;;;5085497;28;20098;-82
2021/05/07 07:44:36;;;;;;;6.45;1.92;;;11.00;99.90;;;;;;5080130;28;20066;-82
2021/05/07 07:47:02;;;;;;;5.30;1.63;;;11.10;99.90;;;;;;5085378;28;20364;-82
2021/05/07 07:49:29;;;;;;;4.60;1.70;;;11.10;99.90;;;;;;5080931;28;20048;-81
2021/05/07 07:51:58;;;;;;;4.97;2.15;;;11.10;99.90;;;;;;5080367;28;20060;-81
2021/05/07 07:54:26;;;;;;;3.70;2.17;;;11.10;99.90;;;;;;5077017;28;20048;-82
2021/05/07 07:56:53;;;;;;;2.58;1.05;;;11.20;99.90;;;;;;5084936;28;20051;-82
2021/05/07 07:59:19;;;;;;;2.80;1.20;;;11.40;99.90;;;;;;5051694;28;20094;-83
2021/05/07 08:01:47;;;;;;;4.72;0.93;;;11.40;99.90;;;;;;5061820;28;20075;-83
2021/05/07 08:04:16;;;;;;;3.53;1.20;;;11.40;99.90;;;;;;5065326;28;20049;-83
2021/05/07 08:06:44;;;;;;;2.28;1.10;;;11.50;99.90;;;;;;5080908;28;20061;-83
2021/05/07 08:09:11;;;;;;;3.17;1.00;;;11.80;99.90;;;;;;5083778;28;20047;-83
2021/05/07 08:11:37;;;;;;;6.25;0.95;;;12.00;99.90;;;;;;5074607;28;20074;-82
2021/05/07 08:14:04;;;;;;;4.43;1.00;;;12.00;99.40;;;;;;5080505;28;20060;-82
2021/05/07 08:16:30;;;;;;;2.00;1.00;;;12.00;99.90;;;;;;5082667;28;20697;-84
2021/05/07 08:18:57;;;;;;;4.47;0.80;;;12.10;99.90;;;;;;5082665;28;20072;-83
2021/05/07 08:21:25;;;;;;;1.65;0.70;;;12.20;97.90;;;;;;5082057;28;20074;-82
2021/05/07 08:23:52;;;;;;;2.80;0.75;;;12.20;95.00;;;;;;5086878;28;20046;-82
2021/05/07 08:26:18;;;;;;;2.40;0.98;;;12.00;94.90;;;;;;5085823;28;20060;-82
2021/05/07 08:28:45;;;;;;;2.88;1.10;;;11.90;94.10;;;;;;5084317;28;20114;-83
2021/05/07 08:31:12;;;;;;;1.65;0.68;;;11.90;93.80;;;;;;5084865;28;20050;-82
2021/05/07 08:33:38;;;;;;;2.70;1.10;;;11.80;94.20;;;;;;5075559;28;21064;-82
2021/05/07 08:36:05;;;;;;;3.20;0.90;;;11.80;94.90;;;;;;5072002;28;20135;-83
2021/05/07 08:38:32;;;;;;;4.03;0.98;;;11.90;93.20;;;;;;5075295;28;20072;-82
2021/05/07 08:41:02;;;;;;;5.22;1.20;;;12.00;95.10;;;;;;5065267;28;20461;-82
2021/05/07 08:43:34;;;;;;;3.37;0.97;;;12.20;94.80;;;;;;5057682;28;20223;-82
2021/05/07 08:46:05;;;;;;;0.73;0.70;;;12.50;93.80;;;;;;5056656;28;20543;-82
2021/05/07 08:48:38;;;;;;;5.45;1.15;;;12.70;91.00;;;;;;5081750;28;20614;-84
2021/05/07 08:51:06;;;;;;;1.38;1.02;;;12.60;89.30;;;;;;5053488;28;20045;-82
2021/05/07 08:53:42;;;;;;;6.32;1.23;;;12.40;89.10;;;;;;5081192;28;20533;-81
2021/05/07 08:56:22;;;;;;;2.25;0.90;;;12.30;90.10;;;;;;5080045;28;20068;-81
2021/05/07 08:58:49;;;;;;;3.85;0.70;;;12.40;91.10;;;;;;5068852;28;20124;-82
2021/05/07 09:01:15;;;;;;;4.25;1.10;;;12.60;90.00;;;;;;5070536;28;20407;-82
2021/05/07 09:03:47;;;;;;;3.15;0.70;;;12.90;88.10;;;;;;5074649;28;20056;-82
2021/05/07 09:06:20;;;;;;;2.05;0.70;;;13.10;83.60;;;;;;5090840;28;20591;-81
2021/05/07 09:08:49;;;;;;;0.90;0.70;;;13.20;81.60;;;;;;5038746;28;20052;-83
2021/05/07 09:11:18;;;;;;;2.08;0.80;;;13.40;83.50;;;;;;5054804;28;20062;-82
2021/05/07 09:13:46;;;;;;;1.48;0.50;;;13.50;81.40;;;;;;5048358;28;20203;-81
2021/05/07 09:16:12;;;;;;;1.83;0.65;;;13.30;78.60;;;;;;5063627;28;20047;-81
2021/05/07 09:18:47;;;;;;;1.13;0.70;;;13.20;77.60;;;;;;5092476;28;20164;-82
2021/05/07 09:21:21;;;;;;;2.05;0.70;;;13.20;76.20;;;;;;5071730;27;20671;-81
2021/05/07 09:23:48;;;;;;;1.80;0.60;;;13.40;81.80;;;;;;5071025;28;20044;-79
2021/05/07 09:26:14;;;;;;;5.70;0.60;;;13.80;80.90;;;;;;5065718;28;20407;-79
2021/05/07 09:29:04;;;;;;;3.85;0.80;;;14.00;78.30;;;;;;5048476;28;20048;-81
2021/05/07 09:31:45;;;;;;;3.55;0.70;;;14.10;74.10;;;;;;5067126;28;20044;-80
2021/05/07 09:34:11;;;;;;;1.50;0.55;;;14.10;74.70;;;;;;5076210;28;20055;-80
2021/05/07 09:36:37;;;;;;;0.50;0.43;;;14.10;71.20;;;;;;5082109;28;20045;-79
2021/05/07 09:39:14;;;;;;;1.50;0.50;;;14.30;77.60;;;;;;5076878;28;20035;-80
2021/05/07 09:41:48;;;;;;;1.85;0.38;;;14.40;72.30;;;;;;5079046;28;20057;-79
2021/05/07 09:44:26;;;;;;;2.15;0.93;;;14.20;70.80;;;;;;5076858;28;20074;-79
2021/05/07 09:46:55;;;;;;;1.10;0.68;;;14.10;69.60;;;;;;5091559;28;20052;-80
2021/05/07 09:49:29;;;;;;;0.82;0.40;;;14.30;69.80;;;;;;5076186;28;20084;-80
2021/05/07 09:51:56;;;;;;;1.42;0.60;;;14.50;72.80;;;;;;5064331;28;20079;-81
2021/05/07 09:54:26;;;;;;;2.65;0.60;;;14.80;71.50;;;;;;5083010;28;20097;-82
2021/05/07 09:56:56;;;;;;;3.30;0.60;;;15.20;68.90;;;;;;5062420;28;20131;-82
2021/05/07 09:59:22;;;;;;;1.80;0.60;;;15.30;65.40;;;;;;5065189;28;20067;-81
2021/05/07 10:01:49;;;;;;;0.82;0.50;;;15.10;66.20;;;;;;5063248;28;20045;-82
2021/05/07 10:04:21;;;;;;;3.58;0.90;;;14.90;68.30;;;;;;5091612;28;20170;-80
2021/05/07 10:06:52;;;;;;;3.23;0.90;;;15.00;70.50;;;;;;5036815;28;20412;-81
2021/05/07 10:09:24;;;;;;;1.02;0.43;;;15.10;65.50;;;;;;5069448;28;20282;-79
2021/05/07 10:11:51;;;;;;;1.63;0.90;;;15.00;68.90;;;;;;5092124;28;20474;-79
2021/05/07 10:14:20;;;;;;;0.80;0.52;;;15.10;67.40;;;;;;5080246;28;20056;-79
2021/05/07 10:16:47;;;;;;;1.60;0.60;;;15.40;69.00;;;;;;5065013;28;20047;-79
2021/05/07 10:19:16;;;;;;;2.92;0.68;;;15.70;66.70;;;;;;5029829;28;20044;-80
2021/05/07 10:21:47;;;;;;;5.10;0.85;;;15.90;63.50;;;;;;5040860;28;20048;-80
2021/05/07 10:24:19;;;;;;;1.60;0.73;;;15.60;63.20;;;;;;5066524;28;20111;-84
2021/05/07 10:26:52;;;;;;;1.58;0.80;;;15.40;64.90;;;;;;5070040;28;20059;-83
2021/05/07 10:29:23;;;;;;;5.75;1.00;;;15.40;66.60;;;;;;5083247;28;20048;-86
2021/05/07 10:31:55;;;;;;;2.60;0.63;;;15.50;64.70;;;;;;5058907;28;20078;-81
2021/05/07 10:34:40;;;;;;;0.63;0.60;;;15.60;64.20;;;;;;5068382;28;20044;-86
2021/05/07 10:37:14;;;;;;;3.60;0.70;;;15.80;63.30;;;;;;5063019;28;20047;-80
2021/05/07 10:40:04;;;;;;;1.15;0.55;;;15.70;64.40;;;;;;5058133;28;20553;-86
2021/05/07 10:42:56;;;;;;;2.10;0.80;;;15.50;61.00;;;;;;5051088;28;20499;-85
2021/05/07 10:45:42;;;;;;;1.25;0.55;;;15.20;62.20;;;;;;5073704;28;20130;-83
2021/05/07 10:48:20;;;;;;;0.60;0.50;;;15.30;66.40;;;;;;5062783;28;20087;-82
2021/05/07 10:50:51;;;;;;;3.25;1.13;;;15.60;67.90;;;;;;5079050;28;20048;-87
2021/05/07 10:53:35;;;;;;;8.70;1.50;;;15.90;60.20;;;;;;5067476;28;20074;-83
2021/05/07 10:56:16;;;;;;;2.35;0.50;;;15.90;61.80;;;;;;5056486;28;20049;-82
2021/05/07 10:58:43;;;;;;;1.30;0.80;;;16.00;61.20;;;;;;5073165;28;20097;-81
2021/05/07 11:01:31;;;;;;;2.63;0.98;;;16.10;59.00;;;;;;5063459;28;20047;-80
2021/05/07 11:04:13;;;;;;;2.78;0.70;;;16.00;59.10;;;;;;5051294;28;20047;-81
2021/05/07 11:06:45;;;;;;;4.95;1.00;;;15.70;60.30;;;;;;5031218;28;20071;-80
2021/05/07 11:09:27;;;;;;;1.00;0.68;;;15.70;59.50;;;;;;5049067;28;20046;-82
2021/05/07 11:12:33;;;;;;;1.92;0.80;;;15.70;58.90;;;;;;5020789;28;20102;-85
2021/05/07 11:15:28;;;;;;;0.93;0.70;;;15.50;59.20;;;;;;4939641;28;20094;-83
2021/05/07 11:23:20;;;;;;;1.30;0.82;;;15.70;57.00;;;;;;5027285;28;20057;-84
2021/05/07 11:25:46;;;;;;;1.23;0.95;;;15.40;57.90;;;;;;5018688;28;20072;-83
2021/05/07 11:28:19;;;;;;;2.55;1.00;;;15.50;60.40;;;;;;5027391;28;20500;-84
2021/05/07 11:30:57;;;;;;;1.30;1.00;;;15.70;58.40;;;;;;5046638;28;20044;-84
2021/05/07 11:33:29;;;;;;;2.50;1.02;;;15.80;59.20;;;;;;5015940;28;20049;-84
2021/05/07 11:36:08;;;;;;;3.75;1.05;;;15.90;58.70;;;;;;5006513;28;20053;-84
2021/05/07 11:38:39;;;;;;;2.92;1.08;;;16.20;60.00;;;;;;5043977;28;20049;-84
2021/05/07 11:41:17;;;;;;;1.83;1.10;;;16.20;60.70;;;;;;5020123;28;20048;-83
2021/05/07 11:43:44;;;;;;;1.30;0.88;;;16.60;60.40;;;;;;5022170;28;20052;-84
2021/05/07 11:46:10;;;;;;;2.72;1.05;;;17.00;60.00;;;;;;5028574;28;20094;-83
2021/05/07 11:48:47;;;;;;;1.55;1.20;;;17.00;57.30;;;;;;5027668;28;20053;-81
2021/05/07 11:51:18;;;;;;;1.45;1.02;;;16.90;58.30;;;;;;5018240;28;20056;-83
2021/05/07 11:53:45;;;;;;;2.80;1.40;;;16.80;59.00;;;;;;4993035;28;20048;-83
2021/05/07 11:56:23;;;;;;;3.00;1.25;;;16.60;57.50;;;;;;5019603;28;20061;-83
2021/05/07 11:58:51;;;;;;;1.83;1.10;;;16.50;60.50;;;;;;5020713;28;20104;-82
2021/05/07 12:01:19;;;;;;;2.05;1.40;;;17.00;61.50;;;;;;5041974;28;20069;-84
2021/05/07 12:03:53;;;;;;;4.18;1.13;;;17.40;57.20;;;;;;5044273;28;20067;-84
2021/05/07 12:06:29;;;;;;;1.25;1.08;;;17.80;59.50;;;;;;5014346;28;20553;-82
2021/05/07 12:09:11;;;;;;;1.98;1.15;;;17.90;55.30;;;;;;5028223;28;20068;-83
2021/05/07 12:11:38;;;;;;;1.65;1.33;;;18.00;53.40;;;;;;5027686;28;20187;-83
2021/05/07 12:14:11;;;;;;;3.20;1.02;;;18.10;57.60;;;;;;5013773;28;20050;-82
2021/05/07 12:16:38;;;;;;;2.22;1.23;;;18.40;52.50;;;;;;5028097;28;20049;-83
2021/05/07 12:19:06;;;;;;;3.63;1.38;;;18.20;53.40;;;;;;5030415;28;20055;-82
2021/05/07 12:21:58;;;;;;;4.93;2.05;;;17.80;57.00;;;;;;5044419;28;20048;-82
2021/05/07 12:24:29;;;;;;;1.30;1.10;;;18.40;54.80;;;;;;5034247;28;20041;-83
2021/05/07 12:26:55;;;;;;;2.10;1.40;;;18.40;55.00;;;;;;5041067;28;20469;-83
2021/05/07 12:29:32;;;;;;;3.10;1.30;;;18.40;54.70;;;;;;5006423;28;20508;-82
2021/05/07 12:32:02;;;;;;;3.85;1.80;;;18.10;52.80;;;;;;5026490;28;20108;-82
2021/05/07 12:34:29;;;;;;;6.35;1.73;;;18.00;57.30;;;;;;5042047;28;20148;-83
2021/05/07 12:36:58;;;;;;;5.68;1.60;;;18.80;53.30;;;;;;5031492;28;20053;-83
2021/05/07 12:39:26;;;;;;;2.88;2.08;;;19.20;53.30;;;;;;5025453;28;20106;-83
2021/05/07 12:41:55;;;;;;;5.20;2.33;;;18.90;54.70;;;;;;5025130;28;20166;-83
2021/05/07 12:44:22;;;;;;;3.30;2.15;;;18.50;55.20;;;;;;5031837;28;20099;-83
2021/05/07 12:46:49;;;;;;;7.22;2.30;;;18.40;56.00;;;;;;5032344;28;20087;-82
2021/05/07 12:49:17;;;;;;;3.92;2.50;;;18.60;55.70;;;;;;5044105;28;20424;-83
2021/05/07 12:51:43;;;;;;;3.85;2.08;;;18.50;56.30;;;;;;5028069;28;20127;-83
2021/05/07 12:54:10;;;;;;;3.75;2.17;;;18.70;56.50;;;;;;5015849;28;20084;-83
2021/05/07 12:56:41;;;;;;;5.70;2.20;;;19.30;52.80;;;;;;5038564;28;20120;-83
2021/05/07 12:59:14;;;;;;;3.28;2.15;;;19.60;53.00;;;;;;5039764;28;20075;-83
2021/05/07 13:01:40;;;;;;;3.75;2.00;;;19.60;52.80;;;;;;5035261;28;20077;-83
2021/05/07 13:04:09;;;;;;;3.35;1.70;;;20.60;53.20;;;;;;5024295;28;20106;-83
2021/05/07 13:06:35;;;;;;;3.05;1.58;;;21.50;47.90;;;;;;5013503;28;20053;-83
2021/05/07 13:09:05;;;;;;;2.53;1.50;;;22.40;47.80;;;;;;5017100;28;20121;-83
2021/05/07 13:11:31;;;;;;;2.42;1.77;;;22.80;42.30;;;;;;5027641;28;20053;-84